sensor_id;sensor_type;location;lat;lon;timestamp;P1;durP1;ratioP1;P2;durP2;ratioP2
18881;SDS011;9573;50.948;11.600;2022-12-16T05:22:30;55.07;;;16.27;;
18881;SDS011;9573;50.948;11.600;2022-12-16T05:25:15;46.63;;;15.43;;
18881;SDS011;9573;50.948;11.600;2022-12-16T05:27:59;51.87;;;12.30;;
18881;SDS011;9573;50.948;11.600;2022-12-16T05:30:44;55.40;;;15.97;;
18881;SDS011;9573;50.948;11.600;2022-12-16T05:33:28;47.73;;;14.57;;
18881;SDS011;9573;50.948;11.600;2022-12-16T05:36:13;46.03;;;14.83;;
18881;SDS011;9573;50.948;11.600;2022-12-16T05:38:59;51.73;;;16.37;;
18881;SDS011;9573;50.948;11.600;2022-12-16T05:41:44;55.53;;;15.13;;
18881;SDS011;9573;50.948;11.600;2022-12-16T05:44:28;45.13;;;14.13;;
18881;SDS011;9573;50.948;11.600;2022-12-16T05:47:13;53.20;;;16.17;;
18881;SDS011;9573;50.948;11.600;2022-12-16T05:49:58;69.17;;;18.13;;
18881;SDS011;9573;50.948;11.600;2022-12-16T05:52:47;50.97;;;16.00;;
18881;SDS011;9573;50.948;11.600;2022-12-16T05:55:33;54.90;;;15.50;;
18881;SDS011;9573;50.948;11.600;2022-12-16T05:58:18;42.53;;;14.60;;
18881;SDS011;9573;50.948;11.600;2022-12-16T06:01:03;46.60;;;15.83;;
18881;SDS011;9573;50.948;11.600;2022-12-16T06:03:48;53.33;;;15.43;;
18881;SDS011;9573;50.948;11.600;2022-12-16T06:06:32;43.90;;;14.60;;
18881;SDS011;9573;50.948;11.600;2022-12-16T06:09:17;54.57;;;15.57;;
18881;SDS011;9573;50.948;11.600;2022-12-16T06:12:03;53.03;;;15.80;;
18881;SDS011;9573;50.948;11.600;2022-12-16T06:14:48;50.13;;;16.03;;
18881;SDS011;9573;50.948;11.600;2022-12-16T14:02:40;50.77;;;21.67;;
18881;SDS011;9573;50.948;11.600;2022-12-16T14:05:27;54.90;;;23.57;;
18881;SDS011;9573;50.948;11.600;2022-12-16T14:08:14;52.87;;;22.83;;
18881;SDS011;9573;50.948;11.600;2022-12-16T14:11:00;56.60;;;22.13;;
18881;SDS011;9573;50.948;11.600;2022-12-16T14:14:01;54.87;;;22.80;;
18881;SDS011;9573;50.948;11.600;2022-12-16T14:16:54;58.90;;;22.60;;
18881;SDS011;9573;50.948;11.600;2022-12-16T14:19:45;57.27;;;22.77;;
18881;SDS011;9573;50.948;11.600;2022-12-16T14:22:45;59.53;;;23.13;;
18881;SDS011;9573;50.948;11.600;2022-12-16T14:25:37;58.10;;;23.47;;
18881;SDS011;9573;50.948;11.600;2022-12-16T14:28:26;51.60;;;21.83;;
18881;SDS011;9573;50.948;11.600;2022-12-16T14:31:14;57.70;;;21.07;;
18881;SDS011;9573;50.948;11.600;2022-12-16T14:34:04;61.13;;;23.60;;
18881;SDS011;9573;50.948;11.600;2022-12-16T14:36:57;54.10;;;22.43;;
18881;SDS011;9573;50.948;11.600;2022-12-16T14:39:42;58.47;;;22.83;;
18881;SDS011;9573;50.948;11.600;2022-12-16T14:42:27;57.03;;;24.03;;
18881;SDS011;9573;50.948;11.600;2022-12-16T14:45:27;56.07;;;22.10;;
18881;SDS011;9573;50.948;11.600;2022-12-16T14:48:14;56.27;;;22.47;;
18881;SDS011;9573;50.948;11.600;2022-12-16T14:51:14;59.37;;;23.37;;
18881;SDS011;9573;50.948;11.600;2022-12-16T14:54:13;56.60;;;22.93;;
18881;SDS011;9573;50.948;11.600;2022-12-16T14:57:09;65.97;;;23.17;;
18881;SDS011;9573;50.948;11.600;2022-12-16T15:00:01;65.83;;;24.30;;
18881;SDS011;9573;50.948;11.600;2022-12-16T15:02:59;60.30;;;24.13;;
18881;SDS011;9573;50.948;11.600;2022-12-16T15:05:49;56.80;;;22.97;;
18881;SDS011;9573;50.948;11.600;2022-12-16T15:08:35;60.33;;;23.47;;
18881;SDS011;9573;50.948;11.600;2022-12-16T15:11:34;55.73;;;23.27;;
18881;SDS011;9573;50.948;11.600;2022-12-16T15:14:22;58.43;;;22.43;;
18881;SDS011;9573;50.948;11.600;2022-12-16T15:17:17;54.90;;;21.90;;
18881;SDS011;9573;50.948;11.600;2022-12-16T15:20:04;55.50;;;21.10;;
18881;SDS011;9573;50.948;11.600;2022-12-16T15:22:58;58.30;;;21.93;;
18881;SDS011;9573;50.948;11.600;2022-12-16T15:25:47;52.87;;;19.03;;
18881;SDS011;9573;50.948;11.600;2022-12-16T15:28:38;50.60;;;18.50;;
18881;SDS011;9573;50.948;11.600;2022-12-16T15:34:26;61.57;;;22.03;;
18881;SDS011;9573;50.948;11.600;2022-12-16T15:37:15;54.57;;;20.67;;
18881;SDS011;9573;50.948;11.600;2022-12-16T15:43:24;55.40;;;20.03;;
18881;SDS011;9573;50.948;11.600;2022-12-16T15:46:17;55.50;;;21.07;;
18881;SDS011;9573;50.948;11.600;2022-12-16T15:49:04;58.10;;;20.63;;
18881;SDS011;9573;50.948;11.600;2022-12-16T15:52:20;58.43;;;21.57;;
18881;SDS011;9573;50.948;11.600;2022-12-16T15:58:18;54.00;;;19.90;;
18881;SDS011;9573;50.948;11.600;2022-12-16T16:01:06;61.73;;;21.00;;
18881;SDS011;9573;50.948;11.600;2022-12-16T16:03:53;55.77;;;19.27;;
18881;SDS011;9573;50.948;11.600;2022-12-16T16:06:40;58.93;;;20.47;;
18881;SDS011;9573;50.948;11.600;2022-12-16T16:09:31;54.23;;;19.90;;
18881;SDS011;9573;50.948;11.600;2022-12-16T16:12:18;52.73;;;18.87;;
18881;SDS011;9573;50.948;11.600;2022-12-16T16:15:05;56.87;;;20.63;;
18881;SDS011;9573;50.948;11.600;2022-12-16T16:17:52;53.57;;;20.67;;
18881;SDS011;9573;50.948;11.600;2022-12-16T16:20:41;56.27;;;20.27;;
18881;SDS011;9573;50.948;11.600;2022-12-16T16:23:26;54.77;;;19.33;;
18881;SDS011;9573;50.948;11.600;2022-12-16T16:26:12;57.13;;;20.80;;
18881;SDS011;9573;50.948;11.600;2022-12-16T16:29:00;56.33;;;21.00;;
18881;SDS011;9573;50.948;11.600;2022-12-16T16:31:45;60.27;;;20.97;;
18881;SDS011;9573;50.948;11.600;2022-12-16T16:34:29;58.57;;;21.13;;
18881;SDS011;9573;50.948;11.600;2022-12-16T16:37:15;58.47;;;21.97;;
18881;SDS011;9573;50.948;11.600;2022-12-16T16:40:07;58.53;;;21.40;;
18881;SDS011;9573;50.948;11.600;2022-12-16T16:43:01;53.93;;;20.60;;
18881;SDS011;9573;50.948;11.600;2022-12-16T16:45:46;60.70;;;21.30;;
18881;SDS011;9573;50.948;11.600;2022-12-16T16:48:36;52.97;;;19.77;;
18881;SDS011;9573;50.948;11.600;2022-12-16T16:51:21;60.30;;;20.67;;
18881;SDS011;9573;50.948;11.600;2022-12-16T16:54:06;62.57;;;21.50;;
18881;SDS011;9573;50.948;11.600;2022-12-16T16:56:51;56.70;;;20.90;;
18881;SDS011;9573;50.948;11.600;2022-12-16T16:59:36;57.73;;;21.07;;
18881;SDS011;9573;50.948;11.600;2022-12-16T17:02:22;52.90;;;20.77;;
18881;SDS011;9573;50.948;11.600;2022-12-16T17:05:08;59.03;;;20.87;;
18881;SDS011;9573;50.948;11.600;2022-12-16T17:07:53;61.73;;;22.80;;
18881;SDS011;9573;50.948;11.600;2022-12-16T17:10:36;63.97;;;22.90;;
18881;SDS011;9573;50.948;11.600;2022-12-16T17:13:21;66.03;;;23.90;;
18881;SDS011;9573;50.948;11.600;2022-12-16T17:16:07;65.30;;;24.03;;
18881;SDS011;9573;50.948;11.600;2022-12-16T17:18:53;62.20;;;23.47;;
18881;SDS011;9573;50.948;11.600;2022-12-16T17:21:37;63.90;;;22.57;;
18881;SDS011;9573;50.948;11.600;2022-12-16T17:24:22;64.80;;;23.20;;
18881;SDS011;9573;50.948;11.600;2022-12-16T17:27:08;62.40;;;23.07;;
18881;SDS011;9573;50.948;11.600;2022-12-16T17:29:58;69.00;;;24.07;;
18881;SDS011;9573;50.948;11.600;2022-12-16T17:32:43;73.53;;;25.47;;
18881;SDS011;9573;50.948;11.600;2022-12-16T17:35:28;76.67;;;26.43;;
18881;SDS011;9573;50.948;11.600;2022-12-16T17:38:19;73.70;;;25.80;;
18881;SDS011;9573;50.948;11.600;2022-12-16T17:41:03;75.00;;;28.33;;
18881;SDS011;9573;50.948;11.600;2022-12-16T17:43:52;77.67;;;28.97;;
18881;SDS011;9573;50.948;11.600;2022-12-16T17:46:36;81.20;;;29.57;;
18881;SDS011;9573;50.948;11.600;2022-12-16T17:49:30;70.83;;;26.57;;
18881;SDS011;9573;50.948;11.600;2022-12-16T17:52:14;76.67;;;27.83;;
18881;SDS011;9573;50.948;11.600;2022-12-16T17:54:59;70.70;;;25.60;;
18881;SDS011;9573;50.948;11.600;2022-12-16T17:57:43;80.13;;;28.03;;
18881;SDS011;9573;50.948;11.600;2022-12-16T18:00:29;81.90;;;29.57;;
18881;SDS011;9573;50.948;11.600;2022-12-16T18:03:14;72.10;;;25.97;;
18881;SDS011;9573;50.948;11.600;2022-12-16T18:06:02;76.97;;;28.30;;
18881;SDS011;9573;50.948;11.600;2022-12-16T18:08:49;81.20;;;28.97;;
18881;SDS011;9573;50.948;11.600;2022-12-16T18:11:36;77.50;;;28.63;;
18881;SDS011;9573;50.948;11.600;2022-12-16T18:14:21;78.70;;;29.00;;
18881;SDS011;9573;50.948;11.600;2022-12-16T18:17:07;80.80;;;29.03;;
18881;SDS011;9573;50.948;11.600;2022-12-16T18:19:51;77.93;;;27.87;;
18881;SDS011;9573;50.948;11.600;2022-12-16T18:22:36;82.40;;;29.87;;
18881;SDS011;9573;50.948;11.600;2022-12-16T18:25:20;75.90;;;27.63;;
18881;SDS011;9573;50.948;11.600;2022-12-16T18:28:05;83.50;;;29.33;;
18881;SDS011;9573;50.948;11.600;2022-12-16T18:30:50;73.20;;;26.13;;
18881;SDS011;9573;50.948;11.600;2022-12-16T18:33:37;73.40;;;26.57;;
18881;SDS011;9573;50.948;11.600;2022-12-16T18:36:22;67.47;;;24.93;;
18881;SDS011;9573;50.948;11.600;2022-12-16T18:39:09;73.87;;;28.37;;
18881;SDS011;9573;50.948;11.600;2022-12-16T18:41:53;65.33;;;24.37;;
18881;SDS011;9573;50.948;11.600;2022-12-16T18:44:38;79.33;;;30.47;;
18881;SDS011;9573;50.948;11.600;2022-12-16T18:47:22;71.10;;;27.00;;
18881;SDS011;9573;50.948;11.600;2022-12-16T18:50:09;83.97;;;30.00;;
18881;SDS011;9573;50.948;11.600;2022-12-16T18:52:53;74.53;;;25.47;;
18881;SDS011;9573;50.948;11.600;2022-12-16T18:55:38;70.90;;;26.17;;
18881;SDS011;9573;50.948;11.600;2022-12-16T18:58:23;76.50;;;29.53;;
18881;SDS011;9573;50.948;11.600;2022-12-16T19:01:08;91.60;;;31.10;;
18881;SDS011;9573;50.948;11.600;2022-12-16T19:03:54;79.73;;;30.23;;
18881;SDS011;9573;50.948;11.600;2022-12-16T19:06:41;84.67;;;32.03;;
18881;SDS011;9573;50.948;11.600;2022-12-16T19:09:26;84.70;;;30.63;;
18881;SDS011;9573;50.948;11.600;2022-12-16T19:12:10;85.37;;;32.77;;
18881;SDS011;9573;50.948;11.600;2022-12-16T19:14:55;79.00;;;31.97;;
18881;SDS011;9573;50.948;11.600;2022-12-16T19:17:40;78.33;;;30.33;;
18881;SDS011;9573;50.948;11.600;2022-12-16T19:20:24;82.57;;;31.77;;
18881;SDS011;9573;50.948;11.600;2022-12-16T19:23:11;95.00;;;33.00;;
18881;SDS011;9573;50.948;11.600;2022-12-16T19:25:57;84.57;;;32.63;;
18881;SDS011;9573;50.948;11.600;2022-12-16T19:28:41;77.60;;;30.10;;
18881;SDS011;9573;50.948;11.600;2022-12-16T19:31:26;86.83;;;30.53;;
18881;SDS011;9573;50.948;11.600;2022-12-16T19:34:11;72.97;;;30.73;;
18881;SDS011;9573;50.948;11.600;2022-12-16T19:36:56;78.77;;;32.50;;
18881;SDS011;9573;50.948;11.600;2022-12-16T19:39:41;77.63;;;30.60;;
18881;SDS011;9573;50.948;11.600;2022-12-16T19:42:26;83.73;;;33.73;;
18881;SDS011;9573;50.948;11.600;2022-12-16T19:45:11;77.83;;;31.33;;
18881;SDS011;9573;50.948;11.600;2022-12-16T19:47:59;82.07;;;31.47;;
18881;SDS011;9573;50.948;11.600;2022-12-16T19:50:44;94.50;;;33.60;;
18881;SDS011;9573;50.948;11.600;2022-12-16T19:53:29;84.93;;;32.50;;
18881;SDS011;9573;50.948;11.600;2022-12-16T19:56:15;83.90;;;32.37;;
18881;SDS011;9573;50.948;11.600;2022-12-16T19:58:56;75.03;;;29.57;;
18881;SDS011;9573;50.948;11.600;2022-12-16T20:01:41;71.13;;;29.83;;
18881;SDS011;9573;50.948;11.600;2022-12-16T20:04:26;74.70;;;30.40;;
18881;SDS011;9573;50.948;11.600;2022-12-16T20:07:10;75.63;;;30.37;;
18881;SDS011;9573;50.948;11.600;2022-12-16T20:09:58;73.63;;;29.77;;
18881;SDS011;9573;50.948;11.600;2022-12-16T20:12:44;78.10;;;32.40;;
18881;SDS011;9573;50.948;11.600;2022-12-16T20:15:28;75.57;;;30.70;;
18881;SDS011;9573;50.948;11.600;2022-12-16T20:18:13;77.90;;;30.90;;
18881;SDS011;9573;50.948;11.600;2022-12-16T20:21:00;83.03;;;29.70;;
18881;SDS011;9573;50.948;11.600;2022-12-16T20:23:45;72.13;;;28.53;;
18881;SDS011;9573;50.948;11.600;2022-12-16T20:26:29;74.33;;;29.47;;
18881;SDS011;9573;50.948;11.600;2022-12-16T20:29:15;78.93;;;31.30;;
18881;SDS011;9573;50.948;11.600;2022-12-16T20:32:00;69.13;;;28.70;;
18881;SDS011;9573;50.948;11.600;2022-12-16T20:34:45;81.30;;;28.23;;
18881;SDS011;9573;50.948;11.600;2022-12-16T20:37:29;79.67;;;28.03;;
18881;SDS011;9573;50.948;11.600;2022-12-16T20:40:29;74.10;;;28.07;;
18881;SDS011;9573;50.948;11.600;2022-12-16T20:43:13;73.00;;;27.80;;
18881;SDS011;9573;50.948;11.600;2022-12-16T20:45:59;74.97;;;29.23;;
18881;SDS011;9573;50.948;11.600;2022-12-16T20:48:44;71.27;;;29.10;;
18881;SDS011;9573;50.948;11.600;2022-12-16T20:51:29;71.63;;;27.83;;
18881;SDS011;9573;50.948;11.600;2022-12-16T20:54:13;81.87;;;30.50;;
18881;SDS011;9573;50.948;11.600;2022-12-16T20:56:58;70.83;;;30.50;;
18881;SDS011;9573;50.948;11.600;2022-12-16T20:59:43;78.20;;;29.93;;
